Terminal Aerodrome Forecast
Issued by NWS Lake Charles, LA

Home | Current Version | Previous Version | Text Only | Print | Product List | Glossary On
Versions: 1 2 3 4 5 6 7 8 9 10 11 12 13 14
638
FTUS44 KLCH 062320
TAFLCH
TAF
KLCH 062320Z 0700/0724 05006KT P6SM VCSH FEW050 SCT100
     FM070200 VRB04KT P6SM SCT100
     FM072000 20008KT P6SM SKC=

USA.gov is the U.S. government's official web portal to all federal, state and local government web resources and services.